sensor_id;sensor_type;location;lat;lon;timestamp;temperature;humidity
12893;DHT22;6514;48.606;9.222;2022-09-24T00:01:45;10.10;99.90
12893;DHT22;6514;48.606;9.222;2022-09-24T00:04:12;10.20;99.90
12893;DHT22;6514;48.606;9.222;2022-09-24T00:06:41;10.20;99.90
12893;DHT22;6514;48.606;9.222;2022-09-24T00:09:10;10.20;99.90
12893;DHT22;6514;48.606;9.222;2022-09-24T00:11:39;10.20;99.90
12893;DHT22;6514;48.606;9.222;2022-09-24T00:14:06;10.30;99.90
12893;DHT22;6514;48.606;9.222;2022-09-24T00:16:33;10.30;99.90
12893;DHT22;6514;48.606;9.222;2022-09-24T00:19:02;10.30;99.90
12893;DHT22;6514;48.606;9.222;2022-09-24T00:21:31;10.30;99.90
12893;DHT22;6514;48.606;9.222;2022-09-24T00:23:59;10.30;99.90
12893;DHT22;6514;48.606;9.222;2022-09-24T00:26:27;10.30;99.90
12893;DHT22;6514;48.606;9.222;2022-09-24T00:29:15;10.30;99.90
12893;DHT22;6514;48.606;9.222;2022-09-24T00:31:42;10.30;99.90
12893;DHT22;6514;48.606;9.222;2022-09-24T00:34:10;10.30;99.90
12893;DHT22;6514;48.606;9.222;2022-09-24T00:36:37;10.30;99.90
12893;DHT22;6514;48.606;9.222;2022-09-24T00:39:05;10.20;99.90
12893;DHT22;6514;48.606;9.222;2022-09-24T00:41:34;10.20;99.90
12893;DHT22;6514;48.606;9.222;2022-09-24T00:44:47;10.10;99.90
12893;DHT22;6514;48.606;9.222;2022-09-24T00:47:29;10.00;99.90
12893;DHT22;6514;48.606;9.222;2022-09-24T00:50:04;10.40;99.90
12893;DHT22;6514;48.606;9.222;2022-09-24T00:52:33;9.90;99.90
12893;DHT22;6514;48.606;9.222;2022-09-24T00:55:00;9.90;99.90
12893;DHT22;6514;48.606;9.222;2022-09-24T00:57:28;9.90;99.90
12893;DHT22;6514;48.606;9.222;2022-09-24T00:59:56;9.90;99.90
12893;DHT22;6514;48.606;9.222;2022-09-24T01:02:23;9.90;99.90
12893;DHT22;6514;48.606;9.222;2022-09-24T01:04:50;9.90;99.90
12893;DHT22;6514;48.606;9.222;2022-09-24T01:07:19;10.00;99.90
12893;DHT22;6514;48.606;9.222;2022-09-24T01:09:46;10.00;99.90
12893;DHT22;6514;48.606;9.222;2022-09-24T01:12:17;10.00;99.90
12893;DHT22;6514;48.606;9.222;2022-09-24T01:14:59;10.00;99.90
12893;DHT22;6514;48.606;9.222;2022-09-24T01:17:35;10.00;99.90
12893;DHT22;6514;48.606;9.222;2022-09-24T01:20:20;10.00;99.90
12893;DHT22;6514;48.606;9.222;2022-09-24T01:23:09;9.90;99.90
12893;DHT22;6514;48.606;9.222;2022-09-24T01:25:43;9.90;99.90
12893;DHT22;6514;48.606;9.222;2022-09-24T01:28:22;9.80;99.90
12893;DHT22;6514;48.606;9.222;2022-09-24T01:30:58;9.80;99.90
12893;DHT22;6514;48.606;9.222;2022-09-24T01:33:27;9.70;99.90
12893;DHT22;6514;48.606;9.222;2022-09-24T01:35:59;9.70;99.90
12893;DHT22;6514;48.606;9.222;2022-09-24T01:38:34;9.80;99.90
12893;DHT22;6514;48.606;9.222;2022-09-24T01:41:04;9.70;99.90
12893;DHT22;6514;48.606;9.222;2022-09-24T01:43:33;9.70;99.90
12893;DHT22;6514;48.606;9.222;2022-09-24T01:46:02;9.60;99.90
12893;DHT22;6514;48.606;9.222;2022-09-24T01:48:31;9.60;99.90
12893;DHT22;6514;48.606;9.222;2022-09-24T01:51:04;9.50;99.90
12893;DHT22;6514;48.606;9.222;2022-09-24T01:53:36;9.50;99.90
12893;DHT22;6514;48.606;9.222;2022-09-24T01:56:09;9.40;99.90
12893;DHT22;6514;48.606;9.222;2022-09-24T01:58:44;9.40;99.90
12893;DHT22;6514;48.606;9.222;2022-09-24T02:01:17;9.30;99.90
12893;DHT22;6514;48.606;9.222;2022-09-24T02:03:50;9.30;99.90
12893;DHT22;6514;48.606;9.222;2022-09-24T02:06:19;9.20;99.90
12893;DHT22;6514;48.606;9.222;2022-09-24T02:08:48;9.10;99.90
12893;DHT22;6514;48.606;9.222;2022-09-24T02:11:17;9.10;99.90
12893;DHT22;6514;48.606;9.222;2022-09-24T02:13:49;9.10;99.90
12893;DHT22;6514;48.606;9.222;2022-09-24T02:16:20;9.10;99.90
12893;DHT22;6514;48.606;9.222;2022-09-24T02:18:50;9.10;99.90
12893;DHT22;6514;48.606;9.222;2022-09-24T02:21:19;9.10;99.90
12893;DHT22;6514;48.606;9.222;2022-09-24T02:23:52;9.10;99.90
12893;DHT22;6514;48.606;9.222;2022-09-24T02:26:20;9.10;99.90
12893;DHT22;6514;48.606;9.222;2022-09-24T02:28:47;9.20;99.90
12893;DHT22;6514;48.606;9.222;2022-09-24T02:31:19;9.30;99.90
12893;DHT22;6514;48.606;9.222;2022-09-24T02:33:49;9.30;99.90
12893;DHT22;6514;48.606;9.222;2022-09-24T02:36:35;9.40;99.90
12893;DHT22;6514;48.606;9.222;2022-09-24T02:39:02;9.50;99.90
12893;DHT22;6514;48.606;9.222;2022-09-24T02:41:29;9.50;99.90
12893;DHT22;6514;48.606;9.222;2022-09-24T02:43:57;9.60;99.90
12893;DHT22;6514;48.606;9.222;2022-09-24T02:46:25;9.60;99.90
12893;DHT22;6514;48.606;9.222;2022-09-24T02:48:52;9.60;99.90
12893;DHT22;6514;48.606;9.222;2022-09-24T02:51:19;9.70;99.90
12893;DHT22;6514;48.606;9.222;2022-09-24T02:53:46;9.70;99.90
12893;DHT22;6514;48.606;9.222;2022-09-24T02:56:13;9.70;99.90
12893;DHT22;6514;48.606;9.222;2022-09-24T02:58:40;9.80;99.90
12893;DHT22;6514;48.606;9.222;2022-09-24T03:01:07;9.80;99.90
12893;DHT22;6514;48.606;9.222;2022-09-24T03:03:36;9.80;99.90
12893;DHT22;6514;48.606;9.222;2022-09-24T03:06:03;9.90;99.90
12893;DHT22;6514;48.606;9.222;2022-09-24T03:08:31;9.90;99.90
12893;DHT22;6514;48.606;9.222;2022-09-24T03:10:58;9.90;99.90
12893;DHT22;6514;48.606;9.222;2022-09-24T03:13:25;9.90;99.90
12893;DHT22;6514;48.606;9.222;2022-09-24T03:15:52;10.00;99.90
12893;DHT22;6514;48.606;9.222;2022-09-24T03:18:19;10.00;99.90
12893;DHT22;6514;48.606;9.222;2022-09-24T03:20:55;10.10;99.90
12893;DHT22;6514;48.606;9.222;2022-09-24T03:23:22;10.10;99.90
12893;DHT22;6514;48.606;9.222;2022-09-24T03:25:49;10.10;99.90
12893;DHT22;6514;48.606;9.222;2022-09-24T03:28:16;10.10;99.90
12893;DHT22;6514;48.606;9.222;2022-09-24T03:30:43;10.10;99.90
12893;DHT22;6514;48.606;9.222;2022-09-24T03:33:24;10.10;99.90
12893;DHT22;6514;48.606;9.222;2022-09-24T03:35:56;10.20;99.90
12893;DHT22;6514;48.606;9.222;2022-09-24T03:38:23;10.20;99.90
12893;DHT22;6514;48.606;9.222;2022-09-24T03:40:50;10.20;99.90
12893;DHT22;6514;48.606;9.222;2022-09-24T03:43:17;10.20;99.90
12893;DHT22;6514;48.606;9.222;2022-09-24T03:45:44;10.10;99.90
12893;DHT22;6514;48.606;9.222;2022-09-24T03:48:11;10.10;99.90
12893;DHT22;6514;48.606;9.222;2022-09-24T03:50:38;10.10;99.90
12893;DHT22;6514;48.606;9.222;2022-09-24T03:53:07;10.10;99.90
12893;DHT22;6514;48.606;9.222;2022-09-24T03:55:33;10.10;99.90
12893;DHT22;6514;48.606;9.222;2022-09-24T03:58:01;10.10;99.90
12893;DHT22;6514;48.606;9.222;2022-09-24T04:00:27;10.10;99.90
12893;DHT22;6514;48.606;9.222;2022-09-24T04:02:54;10.10;99.90
12893;DHT22;6514;48.606;9.222;2022-09-24T04:05:21;10.10;99.90
12893;DHT22;6514;48.606;9.222;2022-09-24T04:07:48;10.10;99.90
12893;DHT22;6514;48.606;9.222;2022-09-24T04:10:16;10.10;99.90
12893;DHT22;6514;48.606;9.222;2022-09-24T04:12:43;10.10;99.90
12893;DHT22;6514;48.606;9.222;2022-09-24T04:15:10;10.10;99.90
12893;DHT22;6514;48.606;9.222;2022-09-24T04:17:38;10.20;99.90
12893;DHT22;6514;48.606;9.222;2022-09-24T04:20:05;10.20;99.90
12893;DHT22;6514;48.606;9.222;2022-09-24T04:22:33;10.20;99.90
12893;DHT22;6514;48.606;9.222;2022-09-24T04:25:00;10.30;99.90
12893;DHT22;6514;48.606;9.222;2022-09-24T04:27:29;10.30;99.90
12893;DHT22;6514;48.606;9.222;2022-09-24T04:29:56;10.30;99.90
12893;DHT22;6514;48.606;9.222;2022-09-24T04:32:22;10.30;99.90
12893;DHT22;6514;48.606;9.222;2022-09-24T04:34:49;10.30;99.90
12893;DHT22;6514;48.606;9.222;2022-09-24T04:37:16;10.30;99.90
12893;DHT22;6514;48.606;9.222;2022-09-24T04:39:43;10.20;99.90
12893;DHT22;6514;48.606;9.222;2022-09-24T04:42:15;10.20;99.90
12893;DHT22;6514;48.606;9.222;2022-09-24T04:44:44;10.20;99.90
12893;DHT22;6514;48.606;9.222;2022-09-24T04:47:12;10.20;99.90
12893;DHT22;6514;48.606;9.222;2022-09-24T04:49:38;10.30;99.90
12893;DHT22;6514;48.606;9.222;2022-09-24T04:52:05;10.30;99.90
12893;DHT22;6514;48.606;9.222;2022-09-24T04:54:33;10.30;99.90
12893;DHT22;6514;48.606;9.222;2022-09-24T04:57:00;10.30;99.90
12893;DHT22;6514;48.606;9.222;2022-09-24T04:59:26;10.30;99.90
12893;DHT22;6514;48.606;9.222;2022-09-24T05:01:55;10.30;99.90
12893;DHT22;6514;48.606;9.222;2022-09-24T05:04:22;10.30;99.90
12893;DHT22;6514;48.606;9.222;2022-09-24T05:06:49;10.40;99.90
12893;DHT22;6514;48.606;9.222;2022-09-24T05:09:16;10.30;99.90
12893;DHT22;6514;48.606;9.222;2022-09-24T05:11:42;10.40;99.90
12893;DHT22;6514;48.606;9.222;2022-09-24T05:14:09;10.40;99.90
12893;DHT22;6514;48.606;9.222;2022-09-24T05:16:36;10.40;99.90
12893;DHT22;6514;48.606;9.222;2022-09-24T05:19:04;10.40;99.90
12893;DHT22;6514;48.606;9.222;2022-09-24T05:21:31;10.40;99.90
12893;DHT22;6514;48.606;9.222;2022-09-24T05:23:58;10.40;99.90
12893;DHT22;6514;48.606;9.222;2022-09-24T05:26:25;10.40;99.90
12893;DHT22;6514;48.606;9.222;2022-09-24T05:29:10;10.40;99.90
12893;DHT22;6514;48.606;9.222;2022-09-24T05:31:37;10.40;99.90
12893;DHT22;6514;48.606;9.222;2022-09-24T05:34:05;10.40;99.90
12893;DHT22;6514;48.606;9.222;2022-09-24T05:36:32;10.40;99.90
12893;DHT22;6514;48.606;9.222;2022-09-24T05:39:00;10.50;99.90
12893;DHT22;6514;48.606;9.222;2022-09-24T05:41:27;10.50;99.90
12893;DHT22;6514;48.606;9.222;2022-09-24T05:43:53;10.50;99.90
12893;DHT22;6514;48.606;9.222;2022-09-24T05:46:24;10.50;99.90
12893;DHT22;6514;48.606;9.222;2022-09-24T05:48:51;10.60;99.90
12893;DHT22;6514;48.606;9.222;2022-09-24T05:51:19;10.60;99.90
12893;DHT22;6514;48.606;9.222;2022-09-24T05:53:46;10.70;99.90
12893;DHT22;6514;48.606;9.222;2022-09-24T05:56:13;10.60;99.90
12893;DHT22;6514;48.606;9.222;2022-09-24T05:58:40;10.60;99.90
12893;DHT22;6514;48.606;9.222;2022-09-24T06:01:07;10.60;99.90
12893;DHT22;6514;48.606;9.222;2022-09-24T06:03:34;10.60;99.90
12893;DHT22;6514;48.606;9.222;2022-09-24T06:06:01;10.60;99.90
12893;DHT22;6514;48.606;9.222;2022-09-24T06:08:30;10.70;99.90
12893;DHT22;6514;48.606;9.222;2022-09-24T06:10:58;10.80;99.90
12893;DHT22;6514;48.606;9.222;2022-09-24T06:13:25;10.80;99.90
12893;DHT22;6514;48.606;9.222;2022-09-24T06:15:52;10.80;99.90
12893;DHT22;6514;48.606;9.222;2022-09-24T06:18:18;10.90;99.90
12893;DHT22;6514;48.606;9.222;2022-09-24T06:20:45;10.90;99.90
12893;DHT22;6514;48.606;9.222;2022-09-24T06:23:12;11.00;99.90
12893;DHT22;6514;48.606;9.222;2022-09-24T06:25:40;11.10;99.90
12893;DHT22;6514;48.606;9.222;2022-09-24T06:28:07;11.20;99.90
12893;DHT22;6514;48.606;9.222;2022-09-24T06:30:35;11.30;99.90
12893;DHT22;6514;48.606;9.222;2022-09-24T06:33:05;11.50;99.90
12893;DHT22;6514;48.606;9.222;2022-09-24T06:35:34;11.50;99.90
12893;DHT22;6514;48.606;9.222;2022-09-24T06:38:02;11.60;99.90
12893;DHT22;6514;48.606;9.222;2022-09-24T06:40:28;11.70;99.90
12893;DHT22;6514;48.606;9.222;2022-09-24T06:42:57;11.80;99.90
12893;DHT22;6514;48.606;9.222;2022-09-24T06:45:24;11.90;99.90
12893;DHT22;6514;48.606;9.222;2022-09-24T06:47:53;11.90;99.90
12893;DHT22;6514;48.606;9.222;2022-09-24T06:50:21;12.10;99.90
12893;DHT22;6514;48.606;9.222;2022-09-24T06:52:48;12.10;99.90
12893;DHT22;6514;48.606;9.222;2022-09-24T06:55:16;12.20;99.90
12893;DHT22;6514;48.606;9.222;2022-09-24T06:57:43;12.40;99.90
12893;DHT22;6514;48.606;9.222;2022-09-24T07:00:12;12.50;99.90
12893;DHT22;6514;48.606;9.222;2022-09-24T07:02:40;12.60;99.90
12893;DHT22;6514;48.606;9.222;2022-09-24T07:05:08;12.70;99.90
12893;DHT22;6514;48.606;9.222;2022-09-24T07:07:35;12.80;99.90
12893;DHT22;6514;48.606;9.222;2022-09-24T07:10:05;12.90;99.90
12893;DHT22;6514;48.606;9.222;2022-09-24T07:12:34;12.90;99.90
12893;DHT22;6514;48.606;9.222;2022-09-24T07:15:02;13.00;99.90
12893;DHT22;6514;48.606;9.222;2022-09-24T07:17:30;12.90;99.90
12893;DHT22;6514;48.606;9.222;2022-09-24T07:19:57;12.90;99.90
12893;DHT22;6514;48.606;9.222;2022-09-24T07:22:24;13.00;99.90
12893;DHT22;6514;48.606;9.222;2022-09-24T07:24:52;13.00;99.90
12893;DHT22;6514;48.606;9.222;2022-09-24T07:27:18;13.00;99.90
12893;DHT22;6514;48.606;9.222;2022-09-24T07:29:46;13.10;99.90
12893;DHT22;6514;48.606;9.222;2022-09-24T07:32:15;13.10;99.90
12893;DHT22;6514;48.606;9.222;2022-09-24T07:34:44;13.20;99.90
12893;DHT22;6514;48.606;9.222;2022-09-24T07:37:11;13.30;99.90
12893;DHT22;6514;48.606;9.222;2022-09-24T07:39:38;13.30;99.90
12893;DHT22;6514;48.606;9.222;2022-09-24T07:42:05;13.50;99.90
12893;DHT22;6514;48.606;9.222;2022-09-24T07:44:32;13.60;99.90
12893;DHT22;6514;48.606;9.222;2022-09-24T07:47:01;13.60;99.90
12893;DHT22;6514;48.606;9.222;2022-09-24T07:49:28;13.70;99.90
12893;DHT22;6514;48.606;9.222;2022-09-24T07:51:58;13.80;99.90
12893;DHT22;6514;48.606;9.222;2022-09-24T07:54:25;13.90;99.90
12893;DHT22;6514;48.606;9.222;2022-09-24T07:56:51;14.00;99.90
12893;DHT22;6514;48.606;9.222;2022-09-24T07:59:18;14.10;99.90
12893;DHT22;6514;48.606;9.222;2022-09-24T08:01:45;14.30;99.90
12893;DHT22;6514;48.606;9.222;2022-09-24T08:04:12;14.40;99.90
12893;DHT22;6514;48.606;9.222;2022-09-24T08:06:39;14.60;99.90
12893;DHT22;6514;48.606;9.222;2022-09-24T08:09:08;14.60;99.90
12893;DHT22;6514;48.606;9.222;2022-09-24T08:11:36;14.60;99.90
12893;DHT22;6514;48.606;9.222;2022-09-24T08:14:03;14.60;99.90
12893;DHT22;6514;48.606;9.222;2022-09-24T08:16:30;14.60;99.90
12893;DHT22;6514;48.606;9.222;2022-09-24T08:18:57;14.50;99.90
12893;DHT22;6514;48.606;9.222;2022-09-24T08:21:25;14.50;99.90
12893;DHT22;6514;48.606;9.222;2022-09-24T08:23:53;14.50;99.90
12893;DHT22;6514;48.606;9.222;2022-09-24T08:26:21;14.40;99.90
12893;DHT22;6514;48.606;9.222;2022-09-24T08:28:48;14.50;99.90
12893;DHT22;6514;48.606;9.222;2022-09-24T08:31:15;14.50;99.90
12893;DHT22;6514;48.606;9.222;2022-09-24T08:33:42;14.60;99.90
12893;DHT22;6514;48.606;9.222;2022-09-24T08:36:10;14.70;99.90
12893;DHT22;6514;48.606;9.222;2022-09-24T08:38:38;14.70;99.90
12893;DHT22;6514;48.606;9.222;2022-09-24T08:41:17;14.60;99.90
12893;DHT22;6514;48.606;9.222;2022-09-24T08:43:51;14.70;99.90
12893;DHT22;6514;48.606;9.222;2022-09-24T08:46:26;14.80;99.90
12893;DHT22;6514;48.606;9.222;2022-09-24T08:49:14;14.90;99.90
12893;DHT22;6514;48.606;9.222;2022-09-24T08:51:49;15.00;99.90
12893;DHT22;6514;48.606;9.222;2022-09-24T08:54:19;15.10;99.90
12893;DHT22;6514;48.606;9.222;2022-09-24T08:56:48;15.20;99.90
12893;DHT22;6514;48.606;9.222;2022-09-24T08:59:25;15.30;99.90
12893;DHT22;6514;48.606;9.222;2022-09-24T09:02:00;15.30;99.90
12893;DHT22;6514;48.606;9.222;2022-09-24T09:04:41;15.20;99.90
12893;DHT22;6514;48.606;9.222;2022-09-24T09:07:17;15.30;99.90
12893;DHT22;6514;48.606;9.222;2022-09-24T09:09:50;15.40;99.90
12893;DHT22;6514;48.606;9.222;2022-09-24T09:12:24;15.50;99.90
12893;DHT22;6514;48.606;9.222;2022-09-24T09:14:58;15.60;99.90
12893;DHT22;6514;48.606;9.222;2022-09-24T09:17:33;15.60;99.90
12893;DHT22;6514;48.606;9.222;2022-09-24T09:20:05;15.70;99.90
12893;DHT22;6514;48.606;9.222;2022-09-24T09:22:37;15.70;99.90
12893;DHT22;6514;48.606;9.222;2022-09-24T09:25:19;15.60;99.90
12893;DHT22;6514;48.606;9.222;2022-09-24T09:27:51;15.50;99.90
12893;DHT22;6514;48.606;9.222;2022-09-24T09:30:20;15.50;99.90
12893;DHT22;6514;48.606;9.222;2022-09-24T09:33:03;15.50;99.90
12893;DHT22;6514;48.606;9.222;2022-09-24T09:35:42;15.40;99.90
12893;DHT22;6514;48.606;9.222;2022-09-24T09:38:15;15.30;99.90
12893;DHT22;6514;48.606;9.222;2022-09-24T09:40:55;15.10;99.90
12893;DHT22;6514;48.606;9.222;2022-09-24T09:43:25;14.90;99.90
12893;DHT22;6514;48.606;9.222;2022-09-24T09:46:01;14.70;99.90
12893;DHT22;6514;48.606;9.222;2022-09-24T09:48:40;14.60;99.90
12893;DHT22;6514;48.606;9.222;2022-09-24T09:51:16;14.40;99.90
12893;DHT22;6514;48.606;9.222;2022-09-24T09:53:53;14.30;99.90
12893;DHT22;6514;48.606;9.222;2022-09-24T09:56:23;14.30;99.90
12893;DHT22;6514;48.606;9.222;2022-09-24T09:58:50;14.20;99.90
12893;DHT22;6514;48.606;9.222;2022-09-24T10:01:30;14.20;99.90
12893;DHT22;6514;48.606;9.222;2022-09-24T10:03:58;14.20;99.90
12893;DHT22;6514;48.606;9.222;2022-09-24T10:06:28;14.30;99.90
12893;DHT22;6514;48.606;9.222;2022-09-24T10:09:07;14.40;99.90
12893;DHT22;6514;48.606;9.222;2022-09-24T10:11:34;14.50;99.90
12893;DHT22;6514;48.606;9.222;2022-09-24T10:14:02;14.70;99.90
12893;DHT22;6514;48.606;9.222;2022-09-24T10:16:36;14.80;99.90
12893;DHT22;6514;48.606;9.222;2022-09-24T10:19:09;14.90;99.90
12893;DHT22;6514;48.606;9.222;2022-09-24T10:21:39;15.00;99.90
12893;DHT22;6514;48.606;9.222;2022-09-24T10:24:12;15.20;99.90
12893;DHT22;6514;48.606;9.222;2022-09-24T10:26:43;15.30;99.90
12893;DHT22;6514;48.606;9.222;2022-09-24T10:29:12;15.40;99.90
12893;DHT22;6514;48.606;9.222;2022-09-24T10:31:59;15.50;99.90
12893;DHT22;6514;48.606;9.222;2022-09-24T10:34:27;15.60;99.90
12893;DHT22;6514;48.606;9.222;2022-09-24T10:36:58;15.70;99.90
12893;DHT22;6514;48.606;9.222;2022-09-24T10:39:26;15.90;99.90
12893;DHT22;6514;48.606;9.222;2022-09-24T10:41:54;16.00;99.90
12893;DHT22;6514;48.606;9.222;2022-09-24T10:44:22;16.10;99.90
12893;DHT22;6514;48.606;9.222;2022-09-24T10:47:14;16.20;99.90
12893;DHT22;6514;48.606;9.222;2022-09-24T10:49:58;16.40;99.90
12893;DHT22;6514;48.606;9.222;2022-09-24T10:52:45;16.60;99.90
12893;DHT22;6514;48.606;9.222;2022-09-24T10:55:27;16.70;99.90
12893;DHT22;6514;48.606;9.222;2022-09-24T10:58:00;17.10;99.90
12893;DHT22;6514;48.606;9.222;2022-09-24T11:00:36;17.40;99.90
12893;DHT22;6514;48.606;9.222;2022-09-24T11:06:25;18.00;99.90
12893;DHT22;6514;48.606;9.222;2022-09-24T11:09:15;18.30;99.90
12893;DHT22;6514;48.606;9.222;2022-09-24T11:11:53;18.30;99.90
12893;DHT22;6514;48.606;9.222;2022-09-24T11:14:45;18.30;99.90
12893;DHT22;6514;48.606;9.222;2022-09-24T11:17:46;18.50;99.90
12893;DHT22;6514;48.606;9.222;2022-09-24T11:20:21;18.70;99.90
12893;DHT22;6514;48.606;9.222;2022-09-24T11:23:06;18.90;99.90
12893;DHT22;6514;48.606;9.222;2022-09-24T11:25:43;19.20;99.90
12893;DHT22;6514;48.606;9.222;2022-09-24T11:31:08;19.10;99.90
12893;DHT22;6514;48.606;9.222;2022-09-24T11:33:52;19.20;99.90
12893;DHT22;6514;48.606;9.222;2022-09-24T11:36:36;19.30;99.90
12893;DHT22;6514;48.606;9.222;2022-09-24T11:39:20;19.30;99.90
12893;DHT22;6514;48.606;9.222;2022-09-24T11:41:55;19.20;99.90
12893;DHT22;6514;48.606;9.222;2022-09-24T11:44:57;19.30;99.90
12893;DHT22;6514;48.606;9.222;2022-09-24T11:47:39;19.30;99.90
12893;DHT22;6514;48.606;9.222;2022-09-24T11:50:19;19.20;99.90
12893;DHT22;6514;48.606;9.222;2022-09-24T11:52:51;19.00;99.90
12893;DHT22;6514;48.606;9.222;2022-09-24T11:55:23;18.80;99.90
12893;DHT22;6514;48.606;9.222;2022-09-24T11:58:04;18.60;99.90
12893;DHT22;6514;48.606;9.222;2022-09-24T12:00:35;18.50;99.90
12893;DHT22;6514;48.606;9.222;2022-09-24T12:03:09;18.50;99.90
12893;DHT22;6514;48.606;9.222;2022-09-24T12:05:42;18.40;99.90
12893;DHT22;6514;48.606;9.222;2022-09-24T12:08:13;18.40;99.90
12893;DHT22;6514;48.606;9.222;2022-09-24T12:10:47;18.60;99.90
12893;DHT22;6514;48.606;9.222;2022-09-24T12:13:19;18.70;99.90
12893;DHT22;6514;48.606;9.222;2022-09-24T12:15:49;18.70;99.90
12893;DHT22;6514;48.606;9.222;2022-09-24T12:18:21;18.80;99.90
12893;DHT22;6514;48.606;9.222;2022-09-24T12:20:51;19.00;99.90
12893;DHT22;6514;48.606;9.222;2022-09-24T12:23:23;19.10;99.90
12893;DHT22;6514;48.606;9.222;2022-09-24T12:25:54;19.20;99.90
12893;DHT22;6514;48.606;9.222;2022-09-24T12:28:23;19.10;99.90
12893;DHT22;6514;48.606;9.222;2022-09-24T12:31:12;18.70;99.90
12893;DHT22;6514;48.606;9.222;2022-09-24T12:34:04;18.80;99.90
12893;DHT22;6514;48.606;9.222;2022-09-24T12:36:43;18.80;99.90
12893;DHT22;6514;48.606;9.222;2022-09-24T12:39:20;18.90;99.90
12893;DHT22;6514;48.606;9.222;2022-09-24T12:41:50;18.80;99.90
12893;DHT22;6514;48.606;9.222;2022-09-24T12:44:29;18.60;99.90
12893;DHT22;6514;48.606;9.222;2022-09-24T12:46:59;18.40;99.90
12893;DHT22;6514;48.606;9.222;2022-09-24T12:49:30;18.20;99.90
12893;DHT22;6514;48.606;9.222;2022-09-24T12:52:00;17.90;99.90
12893;DHT22;6514;48.606;9.222;2022-09-24T12:54:30;17.70;99.90
12893;DHT22;6514;48.606;9.222;2022-09-24T12:57:11;17.50;99.90
12893;DHT22;6514;48.606;9.222;2022-09-24T12:59:46;17.20;99.90
12893;DHT22;6514;48.606;9.222;2022-09-24T13:02:16;17.10;99.90
12893;DHT22;6514;48.606;9.222;2022-09-24T13:04:49;16.90;99.90
12893;DHT22;6514;48.606;9.222;2022-09-24T13:07:32;16.70;99.90
12893;DHT22;6514;48.606;9.222;2022-09-24T13:10:16;16.50;99.90
12893;DHT22;6514;48.606;9.222;2022-09-24T13:12:46;16.40;99.90
12893;DHT22;6514;48.606;9.222;2022-09-24T13:15:22;16.30;99.90
12893;DHT22;6514;48.606;9.222;2022-09-24T13:20:42;16.30;99.90
12893;DHT22;6514;48.606;9.222;2022-09-24T13:23:13;16.40;99.90
12893;DHT22;6514;48.606;9.222;2022-09-24T13:25:57;16.40;99.90
12893;DHT22;6514;48.606;9.222;2022-09-24T13:28:30;16.50;99.90
12893;DHT22;6514;48.606;9.222;2022-09-24T13:31:02;16.40;99.90
12893;DHT22;6514;48.606;9.222;2022-09-24T13:33:39;16.50;99.90
12893;DHT22;6514;48.606;9.222;2022-09-24T13:36:12;16.40;99.90
12893;DHT22;6514;48.606;9.222;2022-09-24T13:38:45;16.50;99.90
12893;DHT22;6514;48.606;9.222;2022-09-24T13:41:24;16.50;99.90
12893;DHT22;6514;48.606;9.222;2022-09-24T13:43:58;16.50;99.90
12893;DHT22;6514;48.606;9.222;2022-09-24T13:46:26;16.50;99.90
12893;DHT22;6514;48.606;9.222;2022-09-24T13:48:57;16.50;99.90
12893;DHT22;6514;48.606;9.222;2022-09-24T13:51:29;16.50;99.90
12893;DHT22;6514;48.606;9.222;2022-09-24T13:54:02;16.50;99.90
12893;DHT22;6514;48.606;9.222;2022-09-24T13:56:32;16.60;99.90
12893;DHT22;6514;48.606;9.222;2022-09-24T13:59:05;16.70;99.90
12893;DHT22;6514;48.606;9.222;2022-09-24T14:01:39;16.90;99.90
12893;DHT22;6514;48.606;9.222;2022-09-24T14:04:14;16.90;99.90
12893;DHT22;6514;48.606;9.222;2022-09-24T14:06:44;17.00;99.90
12893;DHT22;6514;48.606;9.222;2022-09-24T14:09:27;17.00;99.90
12893;DHT22;6514;48.606;9.222;2022-09-24T14:11:55;17.00;99.90
12893;DHT22;6514;48.606;9.222;2022-09-24T14:14:25;17.00;99.90
12893;DHT22;6514;48.606;9.222;2022-09-24T14:16:53;17.00;99.90
12893;DHT22;6514;48.606;9.222;2022-09-24T14:19:31;16.90;99.90
12893;DHT22;6514;48.606;9.222;2022-09-24T14:21:59;16.80;99.90
12893;DHT22;6514;48.606;9.222;2022-09-24T14:24:29;16.70;99.90
12893;DHT22;6514;48.606;9.222;2022-09-24T14:26:59;16.60;99.90
12893;DHT22;6514;48.606;9.222;2022-09-24T14:29:33;16.50;99.90
12893;DHT22;6514;48.606;9.222;2022-09-24T14:32:05;16.40;99.90
12893;DHT22;6514;48.606;9.222;2022-09-24T14:34:35;16.30;99.90
12893;DHT22;6514;48.606;9.222;2022-09-24T14:37:08;16.20;99.90
12893;DHT22;6514;48.606;9.222;2022-09-24T14:39:37;16.20;99.90
12893;DHT22;6514;48.606;9.222;2022-09-24T14:42:10;16.10;99.90
12893;DHT22;6514;48.606;9.222;2022-09-24T14:44:40;16.00;99.90
12893;DHT22;6514;48.606;9.222;2022-09-24T14:47:23;16.00;99.90
12893;DHT22;6514;48.606;9.222;2022-09-24T14:49:51;15.90;99.90
12893;DHT22;6514;48.606;9.222;2022-09-24T14:52:28;15.90;99.90
12893;DHT22;6514;48.606;9.222;2022-09-24T14:55:11;15.80;99.90
12893;DHT22;6514;48.606;9.222;2022-09-24T14:57:40;15.80;99.90
12893;DHT22;6514;48.606;9.222;2022-09-24T15:00:23;15.70;99.90
12893;DHT22;6514;48.606;9.222;2022-09-24T15:02:56;15.60;99.90
12893;DHT22;6514;48.606;9.222;2022-09-24T15:05:24;15.60;99.90
12893;DHT22;6514;48.606;9.222;2022-09-24T15:08:07;15.50;99.90
12893;DHT22;6514;48.606;9.222;2022-09-24T15:10:35;15.40;99.90
12893;DHT22;6514;48.606;9.222;2022-09-24T15:13:12;15.40;99.90
12893;DHT22;6514;48.606;9.222;2022-09-24T15:15:41;15.40;99.90
12893;DHT22;6514;48.606;9.222;2022-09-24T15:18:09;15.40;99.90
12893;DHT22;6514;48.606;9.222;2022-09-24T15:20:36;15.50;99.90
12893;DHT22;6514;48.606;9.222;2022-09-24T15:23:03;15.60;99.90
12893;DHT22;6514;48.606;9.222;2022-09-24T15:25:30;15.60;99.90
12893;DHT22;6514;48.606;9.222;2022-09-24T15:27:57;15.60;99.90
12893;DHT22;6514;48.606;9.222;2022-09-24T15:30:24;15.60;99.90
12893;DHT22;6514;48.606;9.222;2022-09-24T15:32:52;15.60;99.90
12893;DHT22;6514;48.606;9.222;2022-09-24T15:35:19;15.60;99.90
12893;DHT22;6514;48.606;9.222;2022-09-24T15:37:46;15.50;99.90
12893;DHT22;6514;48.606;9.222;2022-09-24T15:40:18;15.60;99.90
12893;DHT22;6514;48.606;9.222;2022-09-24T15:42:51;15.60;99.90
12893;DHT22;6514;48.606;9.222;2022-09-24T15:45:19;15.60;99.90
12893;DHT22;6514;48.606;9.222;2022-09-24T15:47:47;15.60;99.90
12893;DHT22;6514;48.606;9.222;2022-09-24T15:50:15;15.60;99.90
12893;DHT22;6514;48.606;9.222;2022-09-24T15:52:46;15.60;99.90
12893;DHT22;6514;48.606;9.222;2022-09-24T15:55:16;15.60;99.90
12893;DHT22;6514;48.606;9.222;2022-09-24T15:57:44;15.50;99.90
12893;DHT22;6514;48.606;9.222;2022-09-24T16:00:14;15.50;99.90
12893;DHT22;6514;48.606;9.222;2022-09-24T16:02:42;15.50;99.90
12893;DHT22;6514;48.606;9.222;2022-09-24T16:05:11;15.40;99.90
12893;DHT22;6514;48.606;9.222;2022-09-24T16:07:40;15.40;99.90
12893;DHT22;6514;48.606;9.222;2022-09-24T16:10:08;15.40;99.90
12893;DHT22;6514;48.606;9.222;2022-09-24T16:12:35;15.30;99.90
12893;DHT22;6514;48.606;9.222;2022-09-24T16:15:03;15.30;99.90
12893;DHT22;6514;48.606;9.222;2022-09-24T16:17:30;15.30;99.90
12893;DHT22;6514;48.606;9.222;2022-09-24T16:19:57;15.20;99.90
12893;DHT22;6514;48.606;9.222;2022-09-24T16:22:24;15.10;99.90